createdAt,value
2018-10-06T00:00:18.795Z,100157.80
2018-10-06T00:02:48.628Z,100162.73
2018-10-06T00:05:18.341Z,100152.81
2018-10-06T00:07:47.131Z,100152.21
2018-10-06T00:10:15.933Z,100156.45
2018-10-06T00:12:44.721Z,100147.31
2018-10-06T00:15:14.626Z,100150.52
2018-10-06T00:17:43.423Z,100152.68
2018-10-06T00:20:13.133Z,100147.06
2018-10-06T00:22:41.947Z,100151.17
2018-10-06T00:25:10.948Z,100149.91
2018-10-06T00:27:39.837Z,100149.91
2018-10-06T00:30:09.678Z,100148.57
2018-10-06T00:32:38.989Z,100137.31
2018-10-06T00:35:08.540Z,100136.27
2018-10-06T00:37:37.581Z,100130.91
2018-10-06T00:40:06.556Z,100136.79
2018-10-06T00:42:36.223Z,100138.95
2018-10-06T00:45:06.321Z,100139.48
2018-10-06T00:47:35.773Z,100138.35
2018-10-06T00:50:05.342Z,100124.71
2018-10-06T00:52:34.140Z,100125.75
2018-10-06T00:55:02.976Z,100121.94
2018-10-06T00:57:31.977Z,100116.66
2018-10-06T01:00:01.558Z,100111.81
2018-10-06T01:02:31.318Z,100112.94
2018-10-06T01:05:01.693Z,100109.95
2018-10-06T01:07:30.659Z,100110.47
2018-10-06T01:10:00.190Z,100114.28
2018-10-06T01:12:29.000Z,100119.13
2018-10-06T01:14:57.824Z,100103.02
2018-10-06T01:17:26.822Z,100113.28
2018-10-06T01:19:56.300Z,100109.56
2018-10-06T01:22:26.043Z,100106.06
2018-10-06T01:24:54.872Z,100105.53
2018-10-06T01:27:24.333Z,100105.02
2018-10-06T01:29:53.075Z,100097.78
2018-10-06T01:32:21.897Z,100099.20
2018-10-06T01:34:51.104Z,100096.44
2018-10-06T01:37:19.895Z,100086.00
2018-10-06T01:39:48.715Z,100093.23
2018-10-06T01:42:18.400Z,100082.80
2018-10-06T01:44:47.797Z,100078.47
2018-10-06T01:47:17.083Z,100085.70
2018-10-06T01:49:46.700Z,100085.10
2018-10-06T01:52:15.572Z,100087.56
2018-10-06T01:54:44.348Z,100071.24
2018-10-06T01:57:13.128Z,100075.13
2018-10-06T01:59:42.789Z,100069.31
2018-10-06T02:02:12.035Z,100078.46
2018-10-06T02:04:40.901Z,100075.56
2018-10-06T02:07:10.891Z,100068.77
2018-10-06T02:09:39.808Z,100064.73
2018-10-06T02:12:08.932Z,100065.81
2018-10-06T02:14:37.976Z,100066.91
2018-10-06T02:17:07.456Z,100072.05
2018-10-06T02:19:36.548Z,100070.70
2018-10-06T02:22:06.515Z,100055.34
2018-10-06T02:24:35.480Z,100053.26
2018-10-06T02:27:05.131Z,100057.88
2018-10-06T02:29:34.012Z,100068.84
2018-10-06T02:32:02.999Z,100071.18
2018-10-06T02:34:33.295Z,100071.84
2018-10-06T02:37:02.320Z,100074.36
2018-10-06T02:39:31.250Z,100079.12
2018-10-06T02:42:00.743Z,100066.78
2018-10-06T02:44:30.017Z,100074.23
2018-10-06T02:46:59.493Z,100082.26
2018-10-06T02:49:29.161Z,100073.83
2018-10-06T02:51:58.128Z,100076.20
2018-10-06T02:54:26.917Z,100067.84
2018-10-06T02:56:55.698Z,100070.57
2018-10-06T02:59:26.752Z,100070.52
2018-10-06T03:01:56.423Z,100069.00
2018-10-06T03:04:25.856Z,100071.08
2018-10-06T03:06:54.692Z,100067.70
2018-10-06T03:09:23.481Z,100055.49
2018-10-06T03:11:52.318Z,100047.88
2018-10-06T03:14:21.137Z,100048.61
2018-10-06T03:16:50.065Z,100043.55
2018-10-06T03:19:19.248Z,100044.59
2018-10-06T03:21:48.912Z,100056.35
2018-10-06T03:24:17.682Z,100052.19
2018-10-06T03:26:46.480Z,100052.48
2018-10-06T03:29:15.936Z,100036.10
2018-10-06T03:31:44.728Z,100028.36
2018-10-06T03:34:14.860Z,100036.92
2018-10-06T03:36:43.688Z,100041.38
2018-10-06T03:39:12.461Z,100038.30
2018-10-06T03:41:42.283Z,100041.59
2018-10-06T03:44:11.756Z,100045.25
2018-10-06T03:46:40.601Z,100040.33
2018-10-06T03:50:12.891Z,100035.52
2018-10-06T03:52:41.756Z,100047.97
2018-10-06T03:55:10.622Z,100041.64
2018-10-06T03:57:40.392Z,100044.13
2018-10-06T04:00:10.413Z,100035.75
2018-10-06T04:02:39.999Z,100042.56
2018-10-06T04:05:09.054Z,100038.34
2018-10-06T04:07:38.049Z,100032.25
2018-10-06T04:10:07.632Z,100042.33
2018-10-06T04:12:36.447Z,100045.89
2018-10-06T04:15:05.528Z,100054.75
2018-10-06T04:17:34.374Z,100049.18
2018-10-06T04:20:04.203Z,100054.44
2018-10-06T04:22:33.557Z,100056.87
2018-10-06T04:25:02.537Z,100066.88
2018-10-06T04:27:32.802Z,100061.36
2018-10-06T04:30:01.706Z,100060.02
2018-10-06T04:32:30.476Z,100062.60
2018-10-06T04:35:00.256Z,100064.47
2018-10-06T04:37:29.028Z,100062.45
2018-10-06T04:39:58.493Z,100062.78
2018-10-06T04:42:29.084Z,100056.30
2018-10-06T04:44:57.979Z,100069.89
2018-10-06T04:47:27.688Z,100063.20
2018-10-06T04:49:56.987Z,100060.24
2018-10-06T04:52:25.814Z,100057.63
2018-10-06T04:54:54.918Z,100056.39
2018-10-06T04:57:23.813Z,100051.66
2018-10-06T04:59:53.329Z,100052.88
2018-10-06T05:02:23.176Z,100055.41
2018-10-06T05:04:51.961Z,100055.20
2018-10-06T05:07:20.751Z,100054.69
2018-10-06T05:09:49.756Z,100049.62
2018-10-06T05:12:18.632Z,100047.77
2018-10-06T05:14:47.691Z,100046.79
2018-10-06T05:17:16.676Z,100042.56
2018-10-06T05:19:46.489Z,100045.03
2018-10-06T05:22:15.812Z,100051.20
2018-10-06T05:24:44.568Z,100048.31
2018-10-06T05:27:14.104Z,100043.36
2018-10-06T05:29:42.912Z,100052.68
2018-10-06T05:32:11.665Z,100054.02
2018-10-06T05:34:41.496Z,100060.41
2018-10-06T05:37:10.821Z,100054.75
2018-10-06T05:39:40.191Z,100044.34
2018-10-06T05:42:10.025Z,100042.27
2018-10-06T05:44:39.561Z,100044.95
2018-10-06T05:47:10.065Z,100042.79
2018-10-06T05:49:40.493Z,100042.06
2018-10-06T05:52:09.461Z,100047.08
2018-10-06T05:54:39.033Z,100045.23
2018-10-06T05:57:08.585Z,100050.13
2018-10-06T05:59:38.427Z,100047.84
2018-10-06T06:02:08.698Z,100054.64
2018-10-06T06:04:37.683Z,100059.17
2018-10-06T06:07:07.294Z,100064.13
2018-10-06T06:09:36.530Z,100067.55
2018-10-06T06:12:05.553Z,100066.05
2018-10-06T06:14:34.608Z,100055.13
2018-10-06T06:17:03.360Z,100052.81
2018-10-06T06:19:32.866Z,100045.27
2018-10-06T06:22:03.280Z,100043.28
2018-10-06T06:24:32.852Z,100035.30
2018-10-06T06:27:02.931Z,100041.48
2018-10-06T06:29:32.560Z,100036.73
2018-10-06T06:32:01.912Z,100034.36
2018-10-06T06:34:32.069Z,100031.25
2018-10-06T06:37:01.004Z,100032.89
2018-10-06T06:39:30.424Z,100027.31
2018-10-06T06:42:01.141Z,100032.16
2018-10-06T06:44:30.713Z,100036.70
2018-10-06T06:46:59.412Z,100039.50
2018-10-06T06:49:29.539Z,100051.38
2018-10-06T06:52:00.931Z,100049.43
2018-10-06T06:54:30.752Z,100059.27
2018-10-06T06:56:59.770Z,100056.70
2018-10-06T06:59:29.419Z,100057.74
2018-10-06T07:01:58.850Z,100064.44
2018-10-06T07:04:28.478Z,100072.48
2018-10-06T07:06:57.303Z,100076.19
2018-10-06T07:09:26.356Z,100082.59
2018-10-06T07:11:55.309Z,100081.43
2018-10-06T07:14:24.131Z,100089.20
2018-10-06T07:16:53.088Z,100078.97
2018-10-06T07:19:21.919Z,100071.50
2018-10-06T07:21:51.286Z,100068.81
2018-10-06T07:24:20.076Z,100064.24
2018-10-06T07:26:48.886Z,100058.45
2018-10-06T07:29:18.221Z,100057.94
2018-10-06T07:31:47.747Z,100052.22
2018-10-06T07:34:17.354Z,100064.90
2018-10-06T07:36:46.166Z,100069.20
2018-10-06T07:39:14.995Z,100077.19
2018-10-06T07:41:43.828Z,100087.45
2018-10-06T07:44:13.178Z,100100.78
2018-10-06T07:46:42.012Z,100102.12
2018-10-06T07:49:11.688Z,100098.66
2018-10-06T07:51:40.560Z,100085.98
2018-10-06T07:54:09.745Z,100073.33
2018-10-06T07:56:38.683Z,100075.77
2018-10-06T07:59:08.865Z,100071.61
2018-10-06T08:01:39.324Z,100076.45
2018-10-06T08:04:09.932Z,100076.31
2018-10-06T08:06:38.952Z,100074.28
2018-10-06T08:09:10.962Z,100072.20
2018-10-06T08:11:39.849Z,100070.72
2018-10-06T08:14:08.956Z,100073.27
2018-10-06T08:16:37.913Z,100066.77
2018-10-06T08:19:07.345Z,100072.97
2018-10-06T08:21:36.775Z,100067.16
2018-10-06T08:24:05.643Z,100061.48
2018-10-06T08:26:34.420Z,100069.45
2018-10-06T08:29:04.021Z,100079.66
2018-10-06T08:31:32.912Z,100078.78
2018-10-06T08:34:02.535Z,100081.17
2018-10-06T08:36:31.529Z,100079.52
2018-10-06T08:39:00.460Z,100071.98
2018-10-06T08:41:29.319Z,100055.20
2018-10-06T08:43:58.848Z,100063.55
2018-10-06T08:46:27.635Z,100067.52
2018-10-06T08:48:57.070Z,100069.20
2018-10-06T08:51:26.010Z,100074.95
2018-10-06T08:53:54.875Z,100064.73
2018-10-06T08:56:24.153Z,100071.15
2018-10-06T08:58:53.949Z,100071.07
2018-10-06T09:01:25.083Z,100075.40
2018-10-06T09:03:54.121Z,100067.73
2018-10-06T09:06:53.536Z,100078.18
2018-10-06T09:09:53.076Z,100070.27
2018-10-06T09:12:21.892Z,100067.50
2018-10-06T09:14:50.679Z,100078.84
2018-10-06T09:17:19.507Z,100080.78
2018-10-06T09:19:48.781Z,100072.52
2018-10-06T09:22:18.225Z,100054.44
2018-10-06T09:24:47.185Z,100057.58
2018-10-06T09:27:16.899Z,100048.17
2018-10-06T09:29:45.726Z,100054.37
2018-10-06T09:32:14.537Z,100051.80
2018-10-06T09:34:43.456Z,100049.08
2018-10-06T09:37:12.221Z,100050.20
2018-10-06T09:39:41.172Z,100047.25
2018-10-06T09:42:11.109Z,100049.05
2018-10-06T09:44:40.677Z,100061.02
2018-10-06T09:47:09.717Z,100062.78
2018-10-06T09:49:39.441Z,100064.27
2018-10-06T09:52:08.970Z,100064.69
2018-10-06T09:54:38.006Z,100057.82
2018-10-06T09:57:07.110Z,100054.23
2018-10-06T09:59:37.544Z,100052.52
2018-10-06T10:02:14.855Z,100052.37
2018-10-06T10:04:44.244Z,100046.28
2018-10-06T10:07:13.631Z,100045.19
2018-10-06T10:09:43.264Z,100057.87
2018-10-06T10:12:12.069Z,100070.32
2018-10-06T10:14:41.021Z,100071.64
2018-10-06T10:17:10.030Z,100056.66
2018-10-06T10:19:39.735Z,100050.20
2018-10-06T10:22:09.632Z,100054.91
2018-10-06T10:24:39.771Z,100063.42
2018-10-06T10:27:09.456Z,100055.91
2018-10-06T10:29:42.345Z,100063.02
2018-10-06T10:32:11.157Z,100067.79
2018-10-06T10:34:40.865Z,100061.11
2018-10-06T10:37:10.443Z,100051.22
2018-10-06T10:39:39.817Z,100058.60
2018-10-06T10:42:09.175Z,100053.66
2018-10-06T10:44:43.549Z,100044.93
2018-10-06T10:47:12.515Z,100045.54
2018-10-06T10:49:42.200Z,100049.16
2018-10-06T10:52:10.999Z,100055.72
2018-10-06T10:54:39.993Z,100055.52
2018-10-06T10:57:09.260Z,100053.18
2018-10-06T10:59:39.174Z,100055.76
2018-10-06T11:02:08.620Z,100058.77
2018-10-06T11:04:38.054Z,100059.95
2018-10-06T11:07:07.491Z,100056.08
2018-10-06T11:09:36.475Z,100059.59
2018-10-06T11:12:05.347Z,100055.33
2018-10-06T11:14:34.263Z,100045.40
2018-10-06T11:17:03.201Z,100042.38
2018-10-06T11:19:33.340Z,100039.09
2018-10-06T11:22:03.103Z,100034.04
2018-10-06T11:24:32.107Z,100034.80
2018-10-06T11:27:01.808Z,100031.11
2018-10-06T11:29:31.374Z,100037.99
2018-10-06T11:32:00.179Z,100025.67
2018-10-06T11:34:29.015Z,100041.61
2018-10-06T11:36:57.963Z,100039.95
2018-10-06T11:39:26.746Z,100054.23
2018-10-06T11:41:56.707Z,100055.22
2018-10-06T11:44:26.443Z,100064.80
2018-10-06T11:46:55.437Z,100061.06
2018-10-06T11:49:25.033Z,100063.00
2018-10-06T11:51:54.000Z,100055.52
2018-10-06T11:54:22.802Z,100052.23
2018-10-06T11:56:51.580Z,100057.55
2018-10-06T11:59:21.180Z,100054.76
2018-10-06T12:01:51.097Z,100055.97
2018-10-06T12:04:19.938Z,100055.81
2018-10-06T12:06:48.718Z,100059.71
2018-10-06T12:09:17.538Z,100063.81
2018-10-06T12:11:46.353Z,100066.57
2018-10-06T12:14:15.757Z,100070.38
2018-10-06T12:16:44.568Z,100065.69
2018-10-06T12:19:14.148Z,100060.66
2018-10-06T12:21:43.760Z,100063.29
2018-10-06T12:24:12.564Z,100049.15
2018-10-06T12:26:41.485Z,100053.80
2018-10-06T12:29:11.110Z,100055.91
2018-10-06T12:31:40.756Z,100044.75
2018-10-06T12:34:10.196Z,100048.19
2018-10-06T12:36:39.322Z,100042.58
2018-10-06T12:39:08.613Z,100042.36
2018-10-06T12:41:38.081Z,100034.28
2018-10-06T12:44:08.192Z,100020.84
2018-10-06T12:46:38.478Z,100026.61
2018-10-06T12:49:07.484Z,100023.30
2018-10-06T12:54:44.248Z,100025.70
2018-10-06T12:57:13.243Z,100023.08
2018-10-06T12:59:43.068Z,100025.77
2018-10-06T13:02:12.256Z,100028.02
2018-10-06T13:04:41.975Z,100029.13
2018-10-06T13:07:11.025Z,100025.77
2018-10-06T13:09:39.895Z,100031.30
2018-10-06T13:12:08.980Z,100034.99
2018-10-06T13:14:38.607Z,100041.98
2018-10-06T13:17:09.016Z,100035.38
2018-10-06T13:19:39.305Z,100032.17
2018-10-06T13:22:09.241Z,100032.09
2018-10-06T13:24:40.128Z,100032.09
2018-10-06T13:27:09.817Z,100023.58
2018-10-06T13:29:39.138Z,100026.27
2018-10-06T13:32:08.936Z,100021.78
2018-10-06T13:34:38.562Z,100016.44
2018-10-06T13:37:07.501Z,100023.37
2018-10-06T13:39:40.139Z,100028.45
2018-10-06T13:42:09.920Z,100031.44
2018-10-06T13:44:39.940Z,100034.65
2018-10-06T13:47:10.548Z,100042.94
2018-10-06T13:49:39.904Z,100037.63
2018-10-06T13:52:08.948Z,100030.98
2018-10-06T13:54:43.163Z,100037.94
2018-10-06T13:57:12.097Z,100044.44
2018-10-06T13:59:41.678Z,100038.89
2018-10-06T14:02:11.079Z,100034.19
2018-10-06T14:04:40.085Z,100033.70
2018-10-06T14:07:09.088Z,100031.81
2018-10-06T14:09:38.165Z,100025.54
2018-10-06T14:12:07.296Z,100022.55
2018-10-06T14:14:37.753Z,100011.28
2018-10-06T14:17:06.517Z,100000.31
2018-10-06T14:19:36.176Z,100010.32
2018-10-06T14:22:07.383Z,100002.44
2018-10-06T14:24:36.351Z,99992.64
2018-10-06T14:27:06.317Z,100000.03
2018-10-06T14:29:36.190Z,100007.74
2018-10-06T14:32:04.978Z,100024.97
2018-10-06T14:34:33.793Z,100028.11
2018-10-06T14:37:02.884Z,100030.59
2018-10-06T14:39:32.119Z,100031.34
2018-10-06T14:42:05.981Z,100029.61
2018-10-06T14:44:36.350Z,100014.20
2018-10-06T14:47:05.513Z,100006.73
2018-10-06T14:49:34.199Z,100012.80
2018-10-06T14:52:03.134Z,100016.23
2018-10-06T14:54:32.035Z,100010.04
2018-10-06T14:57:01.133Z,100008.62
2018-10-06T14:59:30.610Z,100005.25
2018-10-06T15:02:00.065Z,100009.22
2018-10-06T15:04:29.079Z,100015.02
2018-10-06T15:06:57.891Z,100010.55
2018-10-06T15:09:26.738Z,100015.53
2018-10-06T15:11:56.103Z,100016.58
2018-10-06T15:14:24.915Z,100010.78
2018-10-06T15:16:54.738Z,100002.20
2018-10-06T15:19:23.736Z,100006.91
2018-10-06T15:21:53.276Z,100004.80
2018-10-06T15:24:22.141Z,100010.24
2018-10-06T15:26:50.953Z,100006.02
2018-10-06T15:29:20.839Z,100003.99
2018-10-06T15:31:49.669Z,100012.48
2018-10-06T15:34:18.463Z,100017.72
2018-10-06T15:36:47.380Z,100012.58
2018-10-06T15:39:16.161Z,100013.31
2018-10-06T15:41:45.015Z,100012.80
2018-10-06T15:44:15.165Z,100010.85
2018-10-06T15:46:44.576Z,100005.70
2018-10-06T15:49:13.829Z,100005.80
2018-10-06T15:51:42.605Z,99995.12
2018-10-06T15:54:11.393Z,100001.09
2018-10-06T15:56:40.292Z,99998.77
2018-10-06T15:59:10.195Z,99994.95
2018-10-06T16:01:39.686Z,99988.12
2018-10-06T16:04:08.591Z,99992.00
2018-10-06T16:06:38.049Z,99993.13
2018-10-06T16:09:08.300Z,99996.08
2018-10-06T16:11:37.557Z,99989.62
2018-10-06T16:14:06.424Z,99998.11
2018-10-06T16:16:35.459Z,99995.13
2018-10-06T16:19:04.248Z,99997.80
2018-10-06T16:21:34.022Z,99995.95
2018-10-06T16:24:03.456Z,99996.38
2018-10-06T16:26:32.680Z,99997.42
2018-10-06T16:29:02.417Z,100003.00
2018-10-06T16:31:35.391Z,99996.77
2018-10-06T16:34:04.284Z,99999.72
2018-10-06T16:36:33.534Z,99993.48
2018-10-06T16:39:02.596Z,99993.83
2018-10-06T16:41:31.692Z,99990.03
2018-10-06T16:44:01.392Z,99981.08
2018-10-06T16:46:36.093Z,99985.92
2018-10-06T16:49:05.510Z,100003.59
2018-10-06T16:51:34.981Z,100008.66
2018-10-06T16:54:03.764Z,100005.38
2018-10-06T16:56:32.991Z,100001.05
2018-10-06T16:59:02.798Z,99999.11
2018-10-06T17:01:32.158Z,99991.58
2018-10-06T17:04:01.095Z,99987.47
2018-10-06T17:06:30.444Z,99978.08
2018-10-06T17:09:00.568Z,99979.20
2018-10-06T17:11:29.517Z,99977.56
2018-10-06T17:13:58.385Z,99983.44
2018-10-06T17:16:27.545Z,99987.89
2018-10-06T17:18:56.374Z,99982.75
2018-10-06T17:21:25.859Z,99979.95
2018-10-06T17:23:55.215Z,99980.11
2018-10-06T17:26:24.185Z,99977.13
2018-10-06T17:28:53.560Z,99987.07
2018-10-06T17:31:22.973Z,99995.57
2018-10-06T17:33:52.433Z,99993.71
2018-10-06T17:36:21.496Z,99999.86
2018-10-06T17:38:50.584Z,100000.47
2018-10-06T17:41:19.579Z,99990.05
2018-10-06T17:43:49.130Z,99996.23
2018-10-06T17:46:18.659Z,99992.73
2018-10-06T17:48:47.547Z,99990.88
2018-10-06T17:51:16.367Z,99992.59
2018-10-06T17:53:45.232Z,99992.10
2018-10-06T17:56:14.017Z,99999.91
2018-10-06T17:58:43.655Z,100000.97
2018-10-06T18:01:12.999Z,100006.48
2018-10-06T18:03:42.432Z,100004.65
2018-10-06T18:06:12.083Z,100011.25
2018-10-06T18:08:41.117Z,100014.35
2018-10-06T18:11:10.081Z,100014.05
2018-10-06T18:13:39.065Z,100014.59
2018-10-06T18:16:08.127Z,100005.65
2018-10-06T18:18:37.009Z,100013.37
2018-10-06T18:21:07.208Z,100014.62
2018-10-06T18:23:37.047Z,100024.20
2018-10-06T18:26:05.956Z,100029.77
2018-10-06T18:28:35.472Z,100033.99
2018-10-06T18:31:04.758Z,100043.57
2018-10-06T18:33:34.183Z,100055.86
2018-10-06T18:36:03.111Z,100049.89
2018-10-06T18:38:32.073Z,100053.50
2018-10-06T18:41:01.031Z,100039.41
2018-10-06T18:43:30.579Z,100032.66
2018-10-06T18:46:00.083Z,100027.81
2018-10-06T18:48:28.916Z,100031.53
2018-10-06T18:50:57.717Z,100039.55
2018-10-06T18:53:26.535Z,100042.84
2018-10-06T18:55:55.620Z,100048.20
2018-10-06T18:58:25.135Z,100046.86
2018-10-06T19:00:54.812Z,100041.78
2018-10-06T19:03:24.356Z,100042.30
2018-10-06T19:05:53.170Z,100049.81
2018-10-06T19:08:21.912Z,100053.10
2018-10-06T19:10:50.997Z,100060.72
2018-10-06T19:13:19.789Z,100058.34
2018-10-06T19:15:48.736Z,100049.28
2018-10-06T19:18:18.316Z,100040.33
2018-10-06T19:20:47.622Z,100034.56
2018-10-06T19:23:16.911Z,100038.06
2018-10-06T19:25:45.806Z,100035.38
2018-10-06T19:28:15.325Z,100046.39
2018-10-06T19:30:44.133Z,100052.05
2018-10-06T19:33:13.361Z,100062.77
2018-10-06T19:35:42.172Z,100071.92
2018-10-06T19:38:10.938Z,100066.05
2018-10-06T19:40:39.846Z,100061.84
2018-10-06T19:43:09.788Z,100068.02
2018-10-06T19:45:39.590Z,100076.05
2018-10-06T19:49:11.095Z,100077.08
2018-10-06T19:51:40.106Z,100075.76
2018-10-06T19:54:08.948Z,100073.02
2018-10-06T19:56:38.328Z,100080.52
2018-10-06T19:59:07.951Z,100089.59
2018-10-06T20:01:37.460Z,100083.20
2018-10-06T20:04:06.388Z,100088.86
2018-10-06T20:06:35.336Z,100096.66
2018-10-06T20:09:07.208Z,100110.55
2018-10-06T20:11:36.476Z,100113.06
2018-10-06T20:14:06.925Z,100110.28
2018-10-06T20:16:36.568Z,100110.39
2018-10-06T20:19:05.485Z,100116.70
2018-10-06T20:21:35.172Z,100126.38
2018-10-06T20:24:04.484Z,100114.05
2018-10-06T20:26:33.325Z,100124.34
2018-10-06T20:29:03.315Z,100124.75
2018-10-06T20:31:33.057Z,100125.88
2018-10-06T20:34:01.947Z,100124.47
2018-10-06T20:36:31.035Z,100129.00
2018-10-06T20:39:00.053Z,100125.70
2018-10-06T20:41:28.858Z,100124.05
2018-10-06T20:43:58.944Z,100127.45
2018-10-06T20:46:28.217Z,100128.68
2018-10-06T20:48:57.122Z,100124.05
2018-10-06T20:51:25.916Z,100116.45
2018-10-06T20:53:54.769Z,100109.04
2018-10-06T20:56:23.639Z,100110.51
2018-10-06T20:58:53.535Z,100108.23
2018-10-06T21:01:23.244Z,100107.59
2018-10-06T21:03:52.078Z,100116.83
2018-10-06T21:06:20.893Z,100109.33
2018-10-06T21:08:50.608Z,100112.95
2018-10-06T21:11:19.422Z,100115.83
2018-10-06T21:13:49.621Z,100120.03
2018-10-06T21:16:19.188Z,100118.50
2018-10-06T21:18:48.227Z,100110.68
2018-10-06T21:21:17.717Z,100119.02
2018-10-06T21:23:47.110Z,100121.38
2018-10-06T21:26:15.911Z,100118.91
2018-10-06T21:28:47.116Z,100117.05
2018-10-06T21:31:16.764Z,100121.38
2018-10-06T21:33:45.850Z,100125.07
2018-10-06T21:36:14.627Z,100137.41
2018-10-06T21:38:43.596Z,100124.25
2018-10-06T21:41:12.375Z,100122.70
2018-10-06T21:43:44.803Z,100126.41
2018-10-06T21:46:13.583Z,100121.69
2018-10-06T21:48:42.426Z,100116.34
2018-10-06T21:51:11.348Z,100111.50
2018-10-06T21:53:40.305Z,100120.23
2018-10-06T21:56:10.902Z,100117.56
2018-10-06T21:58:41.187Z,100121.27
2018-10-06T22:01:11.977Z,100130.32
2018-10-06T22:03:41.697Z,100132.88
2018-10-06T22:06:10.533Z,100134.11
2018-10-06T22:08:39.628Z,100129.27
2018-10-06T22:11:08.872Z,100124.75
2018-10-06T22:13:37.918Z,100127.11
2018-10-06T22:16:06.906Z,100123.11
2018-10-06T22:18:35.731Z,100125.64
2018-10-06T22:21:05.528Z,100112.18
2018-10-06T22:23:35.171Z,100115.88
2018-10-06T22:26:04.002Z,100112.67
2018-10-06T22:28:34.679Z,100107.21
2018-10-06T22:31:03.440Z,100100.39
2018-10-06T22:33:32.881Z,100111.26
2018-10-06T22:36:02.542Z,100113.69
2018-10-06T22:38:31.491Z,100111.72
2018-10-06T22:41:01.105Z,100128.63
2018-10-06T22:43:30.566Z,100122.27
2018-10-06T22:46:00.726Z,100132.38
2018-10-06T22:48:29.547Z,100136.77
2018-10-06T22:50:58.385Z,100150.72
2018-10-06T22:53:27.808Z,100154.09
2018-10-06T22:55:56.601Z,100150.48
2018-10-06T22:58:26.441Z,100150.80
2018-10-06T23:00:55.746Z,100137.45
2018-10-06T23:03:25.009Z,100141.45
2018-10-06T23:05:53.809Z,100145.97
2018-10-06T23:08:22.625Z,100141.14
2018-10-06T23:10:51.432Z,100148.13
2018-10-06T23:13:20.388Z,100147.81
2018-10-06T23:15:50.059Z,100155.50
2018-10-06T23:18:18.904Z,100148.81
2018-10-06T23:20:48.819Z,100143.03
2018-10-06T23:23:18.476Z,100154.09
2018-10-06T23:25:47.279Z,100150.38
2018-10-06T23:28:16.862Z,100155.39
2018-10-06T23:30:45.752Z,100150.76
2018-10-06T23:33:15.173Z,100145.42
2018-10-06T23:35:44.001Z,100143.45
2018-10-06T23:38:12.828Z,100145.49
2018-10-06T23:40:41.762Z,100144.03
2018-10-06T23:43:11.563Z,100141.37
2018-10-06T23:45:40.506Z,100146.19
2018-10-06T23:48:16.292Z,100146.70
2018-10-06T23:50:46.040Z,100151.52
2018-10-06T23:53:14.879Z,100157.05
2018-10-06T23:55:43.706Z,100154.19
2018-10-06T23:58:12.830Z,100148.80
